Time;durP1;ratioP1;P1;durP2;ratioP2;P2;SDS_P1;SDS_P2;PMS_P1;PMS_P2;Temp;Humidity;BMP_temperature;BMP_pressure;BME280_temperature;BME280_humidity;BME280_pressure;Samples;Min_cycle;Max_cycle;Signal;HPM_P1;HPM_P2
2022/06/22 00:00:15;;;;;;;;;9.00;9.00;;;;;22.53;45.87;100310.00;5041112;28;45661;-86
2022/06/22 00:02:43;;;;;;;;;10.00;10.00;;;;;22.55;45.11;100332.00;5040490;28;45644;-89
2022/06/22 00:05:17;;;;;;;;;8.75;8.75;;;;;22.56;45.66;100334.47;5039409;28;45935;-86
2022/06/22 00:07:49;;;;;;;;;9.50;9.50;;;;;22.53;45.69;100340.19;5040074;28;45688;-86
2022/06/22 00:10:19;;;;;;;;;10.50;10.00;;;;;22.47;45.60;100324.13;5022280;28;45808;-89
2022/06/22 00:12:51;;;;;;;;;10.25;10.00;;;;;22.43;45.74;100318.34;5040397;28;45546;-89
2022/06/22 00:15:34;;;;;;;;;10.75;10.50;;;;;22.44;46.21;100322.66;5039638;28;46307;-88
2022/06/22 00:18:02;;;;;;;;;12.50;11.25;;;;;22.41;45.75;100316.88;5039766;28;45655;-88
2022/06/22 00:20:30;;;;;;;;;10.75;9.00;;;;;22.40;46.17;100323.25;5039522;28;45634;-87
2022/06/22 00:23:05;;;;;;;;;13.50;11.25;;;;;22.38;46.33;100318.09;5039335;28;46986;-86
2022/06/22 00:25:30;;;;;;;;;12.25;11.00;;;;;22.38;46.07;100311.94;5039521;28;46427;-87
2022/06/22 00:28:35;;;;;;;;;11.25;10.00;;;;;22.36;46.45;100313.97;5039638;28;45588;-89
2022/06/22 00:31:13;;;;;;;;;13.75;11.50;;;;;22.32;46.32;100308.19;5038667;28;45654;-88
2022/06/22 00:33:39;;;;;;;;;13.25;11.00;;;;;22.28;46.61;100306.94;5038284;28;47385;-84
2022/06/22 00:36:23;;;;;;;;;12.75;11.50;;;;;22.22;46.75;100297.00;5037985;28;45888;-88
2022/06/22 00:38:48;;;;;;;;;10.50;10.00;;;;;22.15;46.72;100302.28;5019057;28;45782;-85
2022/06/22 00:41:25;;;;;;;;;13.50;13.00;;;;;22.05;47.41;100306.28;5021565;28;45972;-87
2022/06/22 00:43:52;;;;;;;;;12.75;10.25;;;;;22.02;47.36;100302.19;5038548;28;46829;-88
2022/06/22 00:46:21;;;;;;;;;12.00;11.25;;;;;22.00;46.88;100298.88;5038592;28;46097;-89
2022/06/22 00:48:51;;;;;;;;;13.75;12.00;;;;;21.93;47.67;100302.44;5040930;28;45826;-86
2022/06/22 00:51:23;;;;;;;;;13.25;12.50;;;;;21.88;47.51;100302.19;5039659;28;45614;-90
2022/06/22 00:54:00;;;;;;;;;12.75;12.00;;;;;21.85;47.65;100299.91;5041004;28;46842;-87
2022/06/22 00:57:00;;;;;;;;;11.75;10.25;;;;;21.83;47.79;100315.25;5044268;28;45729;-88
2022/06/22 00:59:46;;;;;;;;;13.50;12.25;;;;;21.76;47.96;100313.34;4908135;28;45694;-90
2022/06/22 01:02:32;;;;;;;;;10.25;10.00;;;;;21.73;48.05;100310.25;4920783;28;45607;-87
2022/06/22 01:08:29;;;;;;;;;12.00;11.00;;;;;21.62;47.76;100314.22;4921209;28;46222;-87
2022/06/22 01:12:16;;;;;;;;;12.25;10.75;;;;;21.58;48.08;100302.28;4919786;28;45635;-90
2022/06/22 01:14:03;;;;;;;;;13.25;11.25;;;;;21.53;48.11;100299.38;4921010;28;45944;-89
2022/06/22 01:16:36;;;;;;;;;12.50;12.00;;;;;21.49;48.30;100294.56;4917782;28;45983;-89
2022/06/22 01:19:10;;;;;;;;;12.50;12.00;;;;;21.49;48.55;100303.38;4917001;28;46229;-87
2022/06/22 01:25:23;;;;;;;;;12.75;12.25;;;;;21.42;48.43;100305.16;4916273;28;45753;-86
2022/06/22 01:27:48;;;;;;;;;15.25;13.75;;;;;21.37;48.63;100307.56;4916224;28;45844;-86
2022/06/22 01:30:43;;;;;;;;;13.50;12.75;;;;;21.36;48.76;100303.25;4914695;28;45789;-89
2022/06/22 01:33:15;;;;;;;;;12.50;11.00;;;;;21.32;48.89;100292.09;4912810;28;46028;-86
2022/06/22 01:35:41;;;;;;;;;14.75;14.00;;;;;21.28;48.95;100298.00;4963874;28;45816;-88
2022/06/22 01:38:12;;;;;;;;;12.00;11.75;;;;;21.26;49.11;100306.22;5015914;28;48301;-88
2022/06/22 01:40:49;;;;;;;;;13.00;12.50;;;;;21.20;49.16;100298.13;5034901;28;45716;-87
2022/06/22 01:43:32;;;;;;;;;16.00;15.50;;;;;21.17;48.94;100299.31;5017000;28;46138;-84
2022/06/22 01:46:12;;;;;;;;;12.00;12.00;;;;;21.14;49.10;100305.00;5035004;28;45669;-89
2022/06/22 01:48:48;;;;;;;;;12.75;12.00;;;;;21.16;48.65;100312.84;5017738;28;46577;-85
2022/06/22 01:51:41;;;;;;;;;12.75;11.25;;;;;21.19;49.09;100315.94;5042291;28;45706;-84
2022/06/22 01:54:09;;;;;;;;;16.00;14.00;;;;;21.21;49.39;100310.44;5049457;28;45790;-87
2022/06/22 01:56:43;;;;;;;;;13.50;12.00;;;;;21.18;49.14;100306.28;5044181;28;45632;-87
2022/06/22 01:59:25;;;;;;;;;14.00;13.75;;;;;21.21;48.97;100307.78;5019296;28;46811;-89
2022/06/22 02:02:00;;;;;;;;;15.00;14.00;;;;;21.22;49.37;100320.06;5039025;28;46040;-87
2022/06/22 02:04:48;;;;;;;;;11.75;10.75;;;;;21.21;48.97;100323.75;5038401;28;45606;-89
2022/06/22 02:07:44;;;;;;;;;16.00;14.00;;;;;21.18;49.18;100332.94;5015301;28;45718;-87
2022/06/22 02:10:34;;;;;;;;;13.00;12.50;;;;;21.20;49.25;100333.59;5037396;28;45738;-87
2022/06/22 02:13:31;;;;;;;;;15.00;13.75;;;;;21.22;49.29;100333.38;5037144;28;46090;-86
2022/06/22 02:16:04;;;;;;;;;15.00;14.00;;;;;21.22;49.30;100336.06;4917605;28;45953;-87
2022/06/22 02:18:42;;;;;;;;;15.00;14.00;;;;;21.20;49.49;100327.44;4918932;28;45604;-88
2022/06/22 02:24:36;;;;;;;;;15.75;15.00;;;;;21.14;49.42;100312.16;4918155;28;45675;-88
2022/06/22 02:27:08;;;;;;;;;15.75;15.50;;;;;21.13;49.27;100306.00;4917770;28;45713;-88
2022/06/22 02:29:40;;;;;;;;;14.00;13.00;;;;;21.10;49.37;100295.72;4901679;28;45740;-85
2022/06/22 02:32:12;;;;;;;;;14.50;13.75;;;;;21.08;49.47;100299.56;4901872;28;48463;-89
2022/06/22 02:34:41;;;;;;;;;15.00;14.75;;;;;21.01;49.79;100301.28;4901053;28;48215;-84
2022/06/22 02:40:31;;;;;;;;;13.00;13.00;;;;;21.04;49.41;100308.94;4917234;28;45556;-88
2022/06/22 02:45:42;;;;;;;;;15.75;14.75;;;;;21.08;49.63;100296.91;4917842;28;45771;-88
2022/06/22 02:48:28;;;;;;;;;13.75;12.75;;;;;21.10;49.63;100302.88;4918062;28;45774;-83
2022/06/22 02:50:56;;;;;;;;;15.75;15.25;;;;;21.11;50.13;100296.50;4917050;28;45866;-85
2022/06/22 02:53:28;;;;;;;;;12.50;12.25;;;;;21.12;50.02;100295.50;5002202;28;45683;-87
2022/06/22 02:55:55;;;;;;;;;14.50;13.75;;;;;21.06;49.77;100281.09;5037811;28;46344;-88
2022/06/22 02:58:32;;;;;;;;;15.50;14.25;;;;;21.11;49.71;100280.53;5038786;28;45662;-88
2022/06/22 03:01:04;;;;;;;;;12.75;11.25;;;;;21.06;49.72;100266.94;5039780;28;45836;-87
2022/06/22 03:03:30;;;;;;;;;15.75;15.50;;;;;21.06;50.16;100266.94;5036660;28;46502;-86
2022/06/22 03:12:21;;;;;;;;;15.00;14.25;;;;;20.99;49.95;100252.72;5038374;28;45598;-87
2022/06/22 03:15:07;;;;;;;;;17.50;15.25;;;;;20.94;50.36;100250.63;5038189;28;46309;-88
2022/06/22 03:17:39;;;;;;;;;15.00;15.00;;;;;20.87;50.30;100242.53;5037765;28;46685;-86
2022/06/22 03:20:18;;;;;;;;;18.25;15.75;;;;;20.81;50.36;100245.94;5039749;28;46003;-88
2022/06/22 03:22:49;;;;;;;;;17.00;15.50;;;;;20.82;50.32;100254.75;5037307;28;45811;-86
2022/06/22 03:25:56;;;;;;;;;13.75;13.00;;;;;20.78;50.68;100246.28;5037049;28;45686;-87
2022/06/22 03:28:33;;;;;;;;;17.75;16.50;;;;;20.71;50.69;100237.41;4916702;28;45668;-87
2022/06/22 03:31:06;;;;;;;;;15.25;13.75;;;;;20.62;50.47;100229.69;4916666;28;45762;-89
2022/06/22 03:33:48;;;;;;;;;15.75;15.75;;;;;20.64;50.68;100239.13;4915546;28;45780;-87
2022/06/22 03:39:41;;;;;;;;;14.25;14.00;;;;;20.52;50.95;100238.75;4916056;28;45908;-89
2022/06/22 03:42:13;;;;;;;;;16.00;14.75;;;;;20.53;51.00;100243.06;4908955;28;45628;-88
2022/06/22 03:44:45;;;;;;;;;15.25;14.25;;;;;20.48;50.88;100236.63;4917158;28;45664;-88
2022/06/22 03:47:24;;;;;;;;;16.00;15.75;;;;;20.41;51.05;100212.56;4916330;28;45758;-87
2022/06/22 03:50:01;;;;;;;;;17.00;16.25;;;;;20.42;51.28;100224.06;4915798;28;46394;-85
2022/06/22 03:56:08;;;;;;;;;13.50;13.00;;;;;20.21;51.76;100216.75;4915142;28;45762;-87
2022/06/22 03:58:33;;;;;;;;;16.00;14.50;;;;;20.12;51.71;100209.84;4916082;28;47352;-88
2022/06/22 04:01:01;;;;;;;;;16.00;15.25;;;;;20.21;51.79;100238.03;4915660;28;46230;-87
2022/06/22 04:03:27;;;;;;;;;13.00;12.75;;;;;20.12;51.60;100233.78;4948634;28;45736;-89
2022/06/22 04:05:57;;;;;;;;;13.25;12.50;;;;;20.13;51.52;100244.22;5037927;28;45801;-89
2022/06/22 04:12:05;;;;;;;;;14.50;13.75;;;;;20.08;51.68;100251.94;5039984;28;45754;-87
2022/06/22 04:14:47;;;;;;;;;15.25;14.75;;;;;20.08;51.67;100256.44;5039731;28;45748;-87
2022/06/22 04:17:17;;;;;;;;;16.00;15.00;;;;;20.08;51.06;100251.13;5018856;28;45967;-87
2022/06/22 04:19:50;;;;;;;;;15.00;14.00;;;;;20.08;51.36;100251.13;5035974;28;45924;-89
2022/06/22 04:22:23;;;;;;;;;16.25;14.50;;;;;20.10;51.50;100262.41;5017042;28;46345;-88
2022/06/22 04:24:55;;;;;;;;;17.00;16.25;;;;;20.10;51.30;100260.56;5035843;28;45702;-88
2022/06/22 04:27:51;;;;;;;;;15.00;15.00;;;;;20.18;51.38;100265.00;5017563;28;45904;-87
2022/06/22 04:30:21;;;;;;;;;14.25;12.25;;;;;20.17;51.40;100255.38;4916736;28;46650;-89
2022/06/22 04:33:07;;;;;;;;;15.25;14.25;;;;;20.22;51.48;100252.16;4903692;28;47124;-87
2022/06/22 04:35:41;;;;;;;;;18.75;16.75;;;;;20.26;50.94;100246.28;4901644;28;45641;-88
2022/06/22 04:38:32;;;;;;;;;14.00;14.00;;;;;20.28;51.73;100249.63;4917257;28;45635;-85
2022/06/22 04:40:57;;;;;;;;;15.75;14.50;;;;;20.28;51.48;100251.44;4916883;28;45947;-90
2022/06/22 04:43:24;;;;;;;;;16.50;15.50;;;;;20.25;51.60;100226.00;4916656;28;46198;-88
2022/06/22 04:45:51;;;;;;;;;16.25;15.75;;;;;20.22;51.64;100228.22;4915966;28;45880;-86
2022/06/22 04:48:28;;;;;;;;;15.75;14.75;;;;;20.19;51.59;100247.22;4916555;28;45680;-88
2022/06/22 04:50:58;;;;;;;;;16.75;15.50;;;;;20.12;51.75;100247.09;4915718;28;46606;-84
2022/06/22 04:53:38;;;;;;;;;16.25;15.25;;;;;20.10;51.66;100236.63;4916550;28;46265;-89
2022/06/22 04:56:09;;;;;;;;;16.50;15.50;;;;;20.13;51.72;100262.06;4921363;28;45856;-90
2022/06/22 04:58:47;;;;;;;;;14.50;14.25;;;;;20.16;51.65;100253.69;4922531;28;45718;-89
2022/06/22 05:01:19;;;;;;;;;15.00;15.00;;;;;20.15;51.64;100254.69;4919981;28;46238;-86
2022/06/22 05:03:45;;;;;;;;;18.75;17.00;;;;;20.08;51.64;100237.81;4916583;28;46228;-89
2022/06/22 05:06:19;;;;;;;;;16.25;15.25;;;;;20.13;51.71;100238.91;4950525;28;45730;-87
2022/06/22 05:08:54;;;;;;;;;17.75;15.75;;;;;20.09;51.96;100231.47;5035315;28;45704;-86
2022/06/22 05:11:44;;;;;;;;;15.25;15.00;;;;;20.02;52.10;100234.06;5035246;28;45616;-89
2022/06/22 05:14:24;;;;;;;;;15.50;14.75;;;;;19.98;52.06;100221.25;5034666;28;46196;-85
2022/06/22 05:17:00;;;;;;;;;18.00;16.75;;;;;20.05;52.14;100232.84;5035239;28;45682;-88
2022/06/22 05:19:35;;;;;;;;;19.00;17.00;;;;;20.02;52.27;100231.41;5035177;28;45645;-84
2022/06/22 05:22:00;;;;;;;;;19.00;18.50;;;;;19.97;52.16;100230.28;5034932;28;45778;-89
2022/06/22 05:24:34;;;;;;;;;16.75;16.25;;;;;19.96;52.10;100242.75;5033496;28;47430;-89
2022/06/22 05:27:05;;;;;;;;;17.25;15.00;;;;;19.95;52.21;100248.22;5035095;28;45762;-89
2022/06/22 05:29:38;;;;;;;;;17.00;15.50;;;;;19.93;51.89;100248.41;5035457;28;45861;-90
2022/06/22 05:32:11;;;;;;;;;21.50;19.25;;;;;19.92;52.34;100236.09;5034763;28;45702;-88
2022/06/22 05:34:40;;;;;;;;;19.75;16.50;;;;;19.83;52.49;100217.75;5036402;28;46122;-89
2022/06/22 05:37:11;;;;;;;;;15.75;14.75;;;;;19.89;52.58;100220.50;5038234;28;45568;-87
2022/06/22 05:39:37;;;;;;;;;19.25;17.25;;;;;19.76;52.36;100217.63;5038651;28;45696;-88
2022/06/22 05:42:03;;;;;;;;;19.50;16.25;;;;;19.73;52.36;100223.31;5038405;28;45649;-87
2022/06/22 05:44:29;;;;;;;;;18.25;17.50;;;;;19.79;52.26;100233.22;5038247;28;46447;-89
2022/06/22 05:46:59;;;;;;;;;20.25;18.25;;;;;19.80;52.81;100240.22;5036246;28;45889;-77
2022/06/22 05:49:42;;;;;;;;;18.25;16.50;;;;;19.75;52.75;100234.59;5036018;28;45797;-78
2022/06/22 05:52:16;;;;;;;;;19.50;19.50;;;;;19.72;52.56;100240.25;5035952;28;45587;-78
2022/06/22 05:54:50;;;;;;;;;20.50;19.25;;;;;19.68;52.47;100237.13;5035144;28;46015;-77
2022/06/22 05:57:39;;;;;;;;;20.00;18.50;;;;;19.69;52.92;100237.97;5018352;28;45637;-78
2022/06/22 06:00:13;;;;;;;;;18.50;17.75;;;;;19.65;52.70;100239.28;5036186;28;45854;-78
2022/06/22 06:02:54;;;;;;;;;17.50;17.25;;;;;19.57;52.81;100226.06;5036641;28;45620;-78
2022/06/22 06:05:30;;;;;;;;;20.50;19.00;;;;;19.58;52.90;100233.88;5037066;28;46688;-78
2022/06/22 06:07:59;;;;;;;;;20.50;18.75;;;;;19.57;52.99;100226.91;5035693;28;45601;-78
2022/06/22 06:10:32;;;;;;;;;20.25;18.25;;;;;19.54;53.11;100229.09;5035776;28;45601;-77
2022/06/22 06:13:15;;;;;;;;;17.75;16.75;;;;;19.52;53.51;100236.41;5035232;28;46567;-83
2022/06/22 06:15:41;;;;;;;;;18.00;17.00;;;;;19.47;53.55;100236.94;5016432;28;47766;-80
2022/06/22 06:18:14;;;;;;;;;21.00;19.75;;;;;19.49;53.52;100239.41;5034812;28;46106;-83
2022/06/22 06:20:48;;;;;;;;;18.75;18.00;;;;;19.47;53.20;100236.94;5017347;28;45627;-79
2022/06/22 06:29:57;;;;;;;;;21.25;19.75;;;;;19.48;53.29;100243.09;5034982;28;45815;-81
2022/06/22 06:32:30;;;;;;;;;20.75;19.75;;;;;19.41;53.95;100231.47;5035283;28;45609;-77
2022/06/22 06:35:09;;;;;;;;;18.00;17.25;;;;;19.48;53.65;100237.78;5034562;28;45770;-82
2022/06/22 06:38:00;;;;;;;;;20.00;18.25;;;;;19.47;53.58;100239.59;5034462;28;46417;-83
2022/06/22 06:43:50;;;;;;;;;21.25;21.25;;;;;19.50;53.68;100252.50;5034527;28;45807;-82
2022/06/22 06:46:40;;;;;;;;;22.00;21.50;;;;;19.51;53.50;100248.03;5035091;28;45659;-81
2022/06/22 06:49:22;;;;;;;;;20.25;19.75;;;;;19.52;53.17;100260.31;5034532;28;46046;-83
2022/06/22 06:51:56;;;;;;;;;23.00;21.50;;;;;19.52;53.60;100252.34;5034723;28;45581;-82
2022/06/22 06:54:44;;;;;;;;;19.75;18.75;;;;;19.52;53.17;100247.88;5034514;28;45556;-80
2022/06/22 06:57:19;;;;;;;;;22.25;19.25;;;;;19.55;53.33;100246.66;5034569;28;45850;-83
2022/06/22 06:59:50;;;;;;;;;17.00;16.25;;;;;19.50;53.35;100241.88;5034595;28;46053;-84
2022/06/22 07:02:37;;;;;;;;;22.50;21.25;;;;;19.54;53.42;100248.50;5034778;28;45627;-81
2022/06/22 07:05:07;;;;;;;;;20.25;20.00;;;;;19.58;53.50;100254.31;5016303;28;45893;-83
2022/06/22 07:07:54;;;;;;;;;21.00;20.75;;;;;19.62;53.91;100251.13;5034645;28;46762;-81
2022/06/22 07:10:29;;;;;;;;;20.50;18.00;;;;;19.63;53.86;100254.59;5034609;28;46430;-83
2022/06/22 07:13:00;;;;;;;;;16.50;16.50;;;;;19.62;53.52;100239.66;5034570;28;45620;-82
2022/06/22 07:15:40;;;;;;;;;15.00;13.00;;;;;19.64;53.42;100259.75;5016168;28;45887;-80
2022/06/22 07:18:20;;;;;;;;;19.75;17.50;;;;;19.62;53.57;100235.16;5034243;28;45555;-80
2022/06/22 07:20:52;;;;;;;;;20.25;18.75;;;;;19.63;53.19;100247.47;5034122;28;46117;-80
2022/06/22 07:26:46;;;;;;;;;22.25;18.50;;;;;19.74;53.57;100254.19;5034329;28;46112;-81
2022/06/22 07:29:39;;;;;;;;;19.50;19.00;;;;;19.75;53.10;100247.88;5033929;28;45628;-81
2022/06/22 07:32:29;;;;;;;;;20.25;17.25;;;;;19.73;53.69;100235.75;5034322;28;46523;-80
2022/06/22 07:35:03;;;;;;;;;20.50;18.50;;;;;19.78;53.30;100244.03;5033580;28;45698;-81
2022/06/22 07:37:35;;;;;;;;;27.25;23.75;;;;;19.76;53.43;100244.19;5034740;28;45648;-82
2022/06/22 07:43:22;;;;;;;;;20.75;17.75;;;;;19.83;53.02;100252.31;5035731;28;45804;-83
2022/06/22 07:45:48;;;;;;;;;18.75;18.00;;;;;19.82;53.09;100246.16;5037353;28;45734;-83
2022/06/22 07:48:19;;;;;;;;;22.25;19.25;;;;;19.87;53.06;100249.09;5035935;28;45892;-81
2022/06/22 07:50:50;;;;;;;;;26.50;22.75;;;;;20.00;53.17;100267.13;5016172;28;47504;-79
2022/06/22 07:53:37;;;;;;;;;23.50;22.25;;;;;20.03;53.10;100262.28;5033651;28;46103;-77
2022/06/22 08:00:20;;;;;;;;;19.75;18.50;;;;;20.13;52.60;100264.72;5033679;28;46080;-78
2022/06/22 08:03:05;;;;;;;;;23.00;19.25;;;;;20.11;52.64;100261.41;5034140;28;45912;-86
2022/06/22 08:05:36;;;;;;;;;21.25;19.00;;;;;20.18;52.36;100266.84;5034438;28;46392;-84
2022/06/22 08:08:15;;;;;;;;;20.75;20.50;;;;;20.26;52.62;100266.75;5034193;28;45626;-85
2022/06/22 08:14:23;;;;;;;;;20.75;19.75;;;;;20.33;52.45;100265.06;5033082;28;45629;-82
2022/06/22 08:16:54;;;;;;;;;22.25;19.75;;;;;20.40;52.50;100282.81;5033486;28;45990;-78
2022/06/22 08:19:21;;;;;;;;;22.00;20.75;;;;;20.39;52.22;100262.50;5033687;28;45724;-82
2022/06/22 08:21:51;;;;;;;;;21.00;21.00;;;;;20.41;52.39;100265.81;5034356;28;45757;-82
2022/06/22 08:24:19;;;;;;;;;23.50;20.00;;;;;20.50;52.95;100286.03;5033885;28;45616;-79
2022/06/22 08:30:10;;;;;;;;;20.25;19.25;;;;;20.52;52.00;100273.34;5033748;28;45766;-79
2022/06/22 08:32:54;;;;;;;;;22.25;20.75;;;;;20.56;51.97;100275.66;5034699;28;45740;-79
2022/06/22 08:35:25;;;;;;;;;22.25;20.50;;;;;20.68;52.05;100277.69;5033791;28;45870;-81
2022/06/22 08:38:21;;;;;;;;;27.00;26.00;;;;;20.71;56.42;100279.16;5016602;28;46234;-82
2022/06/22 08:41:10;;;;;;;;;25.75;23.00;;;;;20.65;56.80;100277.22;5035427;28;45705;-83
2022/06/22 08:43:51;;;;;;;;;27.75;25.25;;;;;20.53;57.16;100283.00;5033676;28;45708;-81
2022/06/22 08:46:39;;;;;;;;;27.25;24.25;;;;;20.44;56.85;100289.41;5032552;28;47101;-78
2022/06/22 08:49:34;;;;;;;;;26.25;24.00;;;;;20.36;56.95;100291.31;5032780;28;46008;-78
2022/06/22 08:52:23;;;;;;;;;27.75;24.75;;;;;20.32;56.13;100277.53;4913258;28;45809;-78
2022/06/22 08:58:10;;;;;;;;;25.75;22.25;;;;;20.30;56.58;100276.84;4912583;28;45764;-77
2022/06/22 09:01:09;;;;;;;;;24.50;24.00;;;;;20.32;56.71;100272.22;4913057;28;46248;-77
2022/06/22 09:03:58;;;;;;;;;24.50;21.00;;;;;20.35;57.08;100274.50;4912613;28;45806;-78
2022/06/22 09:06:38;;;;;;;;;25.50;23.75;;;;;20.39;56.59;100275.81;4913243;28;45655;-78
2022/06/22 09:09:37;;;;;;;;;26.25;23.25;;;;;20.42;56.26;100270.13;4914466;28;45986;-77
2022/06/22 09:12:56;;;;;;;;;23.25;21.00;;;;;20.48;55.97;100290.69;4916207;28;45728;-76
2022/06/22 09:15:24;;;;;;;;;22.00;21.00;;;;;20.53;55.63;100290.16;4916309;28;45892;-79
2022/06/22 09:18:16;;;;;;;;;24.00;23.25;;;;;20.58;55.99;100282.44;4899788;28;45688;-77
2022/06/22 09:20:44;;;;;;;;;26.00;24.50;;;;;20.63;55.65;100277.41;4916486;28;45835;-78
2022/06/22 09:23:32;;;;;;;;;22.25;21.00;;;;;20.69;55.76;100276.69;4916096;28;45643;-77
2022/06/22 09:29:41;;;;;;;;;23.25;23.00;;;;;20.85;55.51;100279.16;5000780;28;45909;-78
2022/06/22 09:32:26;;;;;;;;;21.75;18.00;;;;;20.93;55.56;100281.75;5035873;28;45563;-78
2022/06/22 09:35:11;;;;;;;;;19.50;18.00;;;;;21.02;55.63;100277.16;5035323;28;46326;-77
2022/06/22 09:37:57;;;;;;;;;25.50;21.50;;;;;21.12;55.44;100288.34;5035544;28;45702;-76
2022/06/22 09:44:03;;;;;;;;;24.00;22.25;;;;;21.32;55.44;100291.31;5035195;28;45700;-78
2022/06/22 09:46:31;;;;;;;;;22.50;20.50;;;;;21.41;54.93;100287.53;5035776;28;46175;-77
2022/06/22 09:49:26;;;;;;;;;21.75;18.50;;;;;21.50;55.18;100277.56;5035536;28;45861;-79
2022/06/22 09:52:00;;;;;;;;;24.25;21.75;;;;;21.60;54.48;100283.41;5035587;28;45590;-79
2022/06/22 10:02:06;;;;;;;;;20.50;18.50;;;;;21.78;53.99;100281.16;4897476;29;45738;-76
2022/06/22 10:04:34;;;;;;;;;24.75;23.50;;;;;21.91;53.98;100288.47;4892535;29;45864;-77
2022/06/22 10:07:00;;;;;;;;;20.25;20.00;;;;;21.96;53.61;100281.59;4897049;29;45695;-78
2022/06/22 10:09:40;;;;;;;;;23.50;21.25;;;;;22.03;53.31;100282.47;4896745;29;46464;-78
2022/06/22 10:16:00;;;;;;;;;21.00;19.00;;;;;22.24;52.86;100284.28;4897337;29;46032;-77
2022/06/22 10:18:52;;;;;;;;;21.25;20.00;;;;;22.35;53.41;100280.28;4896834;29;45628;-78
2022/06/22 10:21:20;;;;;;;;;19.75;19.75;;;;;22.44;53.08;100271.94;4894993;29;46353;-79
2022/06/22 10:24:19;;;;;;;;;19.00;18.00;;;;;22.56;53.26;100270.38;4895898;29;45710;-78
2022/06/22 10:30:43;;;;;;;;;20.50;18.25;;;;;22.76;52.30;100273.22;5015614;28;45522;-77
2022/06/22 10:33:20;;;;;;;;;20.75;19.00;;;;;22.82;52.89;100272.44;5015137;28;46075;-78
2022/06/22 10:35:58;;;;;;;;;21.50;20.00;;;;;22.90;52.18;100269.59;5015653;28;45461;-77
2022/06/22 10:38:43;;;;;;;;;22.25;20.75;;;;;22.91;52.97;100252.53;5015805;28;45435;-79
2022/06/22 10:47:56;;;;;;;;;19.25;18.00;;;;;23.25;52.51;100257.03;5015920;28;45678;-80
2022/06/22 10:50:47;;;;;;;;;23.00;21.00;;;;;23.33;52.18;100254.16;5016221;28;45676;-78
2022/06/22 10:53:33;;;;;;;;;16.75;15.00;;;;;23.41;52.77;100239.81;5015409;28;45598;-77
2022/06/22 10:59:47;;;;;;;;;17.00;16.50;;;;;23.63;52.68;100235.97;5018860;28;45600;-77
2022/06/22 11:02:50;;;;;;;;;21.25;19.50;;;;;23.76;52.87;100232.50;5030014;28;45581;-79
2022/06/22 11:05:39;;;;;;;;;16.50;16.50;;;;;23.87;52.50;100223.03;5035667;28;45637;-78
2022/06/22 11:08:32;;;;;;;;;20.25;18.00;;;;;24.00;52.63;100223.06;5035196;28;46600;-78
2022/06/22 11:18:09;;;;;;;;;13.75;13.75;;;;;24.42;52.87;100237.88;5035129;28;45632;-78
2022/06/22 11:21:02;;;;;;;;;18.00;14.00;;;;;24.55;53.05;100233.34;5035539;28;46021;-78
2022/06/22 11:24:07;;;;;;;;;16.00;15.00;;;;;24.63;52.95;100235.78;5035394;28;45705;-80
2022/06/22 11:33:28;;;;;;;;;13.25;12.50;;;;;24.94;52.69;100247.72;5035145;28;45994;-80
2022/06/22 11:36:44;;;;;;;;;11.00;11.00;;;;;25.01;52.42;100249.31;5035406;28;45602;-80
2022/06/22 11:39:21;;;;;;;;;11.00;11.00;;;;;25.08;52.40;100257.34;4915615;28;45582;-81
2022/06/22 11:42:00;;;;;;;;;13.00;13.00;;;;;25.15;52.57;100250.13;4915351;28;46556;-81
2022/06/22 11:45:49;;;;;;;;;12.75;12.00;;;;;25.22;52.16;100253.56;4915757;28;46377;-82
2022/06/22 11:47:56;;;;;;;;;14.00;13.25;;;;;25.29;52.20;100248.19;4917791;28;45667;-81
2022/06/22 11:50:59;;;;;;;;;11.75;11.25;;;;;25.36;51.84;100249.81;4917260;28;45565;-81
2022/06/22 11:53:36;;;;;;;;;10.75;10.75;;;;;25.41;52.00;100252.69;4916778;28;45662;-81
2022/06/22 11:56:12;;;;;;;;;14.75;12.00;;;;;25.46;51.52;100246.66;4915383;28;45866;-80
2022/06/22 11:59:02;;;;;;;;;10.75;10.50;;;;;25.48;51.42;100247.25;4915643;28;45678;-81
2022/06/22 12:01:48;;;;;;;;;15.00;14.25;;;;;25.45;51.50;100243.16;4916323;28;45554;-81
2022/06/22 12:04:25;;;;;;;;;13.25;11.75;;;;;25.51;51.29;100249.53;4918338;28;45662;-81
2022/06/22 12:07:03;;;;;;;;;13.25;13.00;;;;;25.53;51.02;100255.50;4917192;28;46308;-81
2022/06/22 12:09:50;;;;;;;;;13.25;13.25;;;;;25.54;51.13;100256.31;4901310;28;45542;-81
2022/06/22 12:16:07;;;;;;;;;13.50;13.00;;;;;25.55;51.18;100264.16;4993867;28;45511;-80
2022/06/22 12:19:01;;;;;;;;;15.00;14.50;;;;;25.55;50.76;100266.00;5031934;28;45822;-80
2022/06/22 12:21:33;;;;;;;;;13.25;12.50;;;;;25.56;51.07;100270.38;5032537;28;45699;-81
2022/06/22 12:24:17;;;;;;;;;13.75;12.25;;;;;25.55;51.04;100274.88;5038668;28;45712;-81
2022/06/22 12:30:11;;;;;;;;;14.75;12.25;;;;;25.58;51.20;100276.34;5040870;28;46074;-80
2022/06/22 12:33:01;;;;;;;;;14.00;14.00;;;;;25.65;51.31;100279.81;5041376;28;45525;-80
2022/06/22 12:35:50;;;;;;;;;15.25;15.00;;;;;25.69;51.38;100278.38;5036162;28;45792;-80
2022/06/22 12:38:31;;;;;;;;;13.50;13.25;;;;;25.73;51.04;100276.88;5029185;28;46549;-80
2022/06/22 12:41:13;;;;;;;;;13.75;12.50;;;;;25.70;50.83;100259.34;5035661;28;46000;-81
2022/06/22 12:47:18;;;;;;;;;14.00;13.00;;;;;25.79;50.49;100276.84;5034340;28;45482;-80
2022/06/22 12:49:53;;;;;;;;;15.75;14.75;;;;;25.82;50.59;100262.97;5036040;28;45611;-81
2022/06/22 12:52:29;;;;;;;;;15.00;14.25;;;;;25.84;50.35;100262.78;5038757;28;45914;-81
2022/06/22 12:55:08;;;;;;;;;16.00;15.25;;;;;25.84;50.40;100252.03;5040861;28;45529;-82
2022/06/22 12:57:58;;;;;;;;;12.75;12.75;;;;;25.92;50.37;100267.88;5041060;28;45716;-81
2022/06/22 13:00:24;;;;;;;;;13.25;13.25;;;;;25.95;50.65;100258.56;5034284;28;45730;-80
2022/06/22 13:02:57;;;;;;;;;14.00;14.00;;;;;25.93;50.33;100256.09;5040485;28;45647;-81
2022/06/22 13:05:27;;;;;;;;;13.75;12.50;;;;;25.97;50.41;100251.91;5040966;28;45603;-80
2022/06/22 13:08:03;;;;;;;;;13.00;13.00;;;;;25.98;50.44;100244.69;5040496;28;45626;-81
2022/06/22 13:10:35;;;;;;;;;12.50;12.25;;;;;26.07;50.41;100254.16;5041161;28;46736;-81
2022/06/22 13:13:14;;;;;;;;;14.50;13.75;;;;;26.15;50.07;100256.53;5041183;28;46207;-81
2022/06/22 13:15:48;;;;;;;;;13.75;13.25;;;;;26.19;50.17;100253.19;5039542;28;45723;-81
2022/06/22 13:18:24;;;;;;;;;12.75;12.00;;;;;26.25;49.95;100252.34;5041323;28;45740;-80
2022/06/22 13:20:55;;;;;;;;;14.25;12.25;;;;;26.30;49.89;100244.47;5038542;28;46518;-80
2022/06/22 13:23:33;;;;;;;;;16.00;15.75;;;;;26.36;49.67;100240.06;5036758;28;45481;-80
2022/06/22 13:26:12;;;;;;;;;16.00;16.00;;;;;26.38;49.16;100229.09;5036263;28;45678;-80
2022/06/22 13:28:55;;;;;;;;;21.25;19.25;;;;;26.46;48.43;100239.56;5036546;28;45607;-83
2022/06/22 13:31:26;;;;;;;;;16.00;15.75;;;;;26.41;48.54;100229.47;5036409;28;47029;-79
2022/06/22 13:34:06;;;;;;;;;18.50;17.25;;;;;26.48;48.16;100222.19;5038443;28;45853;-77
2022/06/22 13:36:53;;;;;;;;;16.25;15.25;;;;;26.56;48.42;100221.09;5037455;28;45657;-78
2022/06/22 13:39:57;;;;;;;;;20.25;18.00;;;;;26.63;48.70;100222.63;5035016;28;45690;-79
2022/06/22 13:46:07;;;;;;;;;17.50;17.00;;;;;26.74;48.73;100216.53;4952642;28;45931;-80
2022/06/22 13:48:46;;;;;;;;;20.25;18.25;;;;;26.74;48.53;100200.41;4952718;28;45666;-79
2022/06/22 13:51:32;;;;;;;;;19.00;18.75;;;;;26.87;48.01;100203.97;4953075;28;45574;-79
2022/06/22 13:54:14;;;;;;;;;18.00;16.50;;;;;26.86;48.20;100196.97;4938485;28;47572;-80
2022/06/22 13:57:01;;;;;;;;;20.75;19.25;;;;;26.86;48.29;100194.28;4941994;28;47447;-80
2022/06/22 14:03:20;;;;;;;;;18.25;18.00;;;;;26.84;48.31;100185.59;4957338;28;45824;-80
2022/06/22 14:05:51;;;;;;;;;22.00;21.00;;;;;26.81;48.19;100178.00;4956867;28;46575;-78